Time;durP1;ratioP1;P1;durP2;ratioP2;P2;SDS_P1;SDS_P2;PMS_P1;PMS_P2;Temp;Humidity;BMP_temperature;BMP_pressure;BME280_temperature;BME280_humidity;BME280_pressure;Samples;Min_cycle;Max_cycle;Signal;HPM_P1;HPM_P2
2022/01/28 00:01:06;;;;;;;4.65;2.05;;;;;;;;;;5061150;28;20025;-72
2022/01/28 00:03:36;;;;;;;6.03;2.47;;;;;;;;;;5039621;28;20121;-73
2022/01/28 00:06:03;;;;;;;5.43;2.13;;;;;;;;;;5063577;28;20057;-72
2022/01/28 00:08:29;;;;;;;5.38;2.42;;;;;;;;;;5039906;28;20025;-72
2022/01/28 00:10:56;;;;;;;6.40;2.50;;;;;;;;;;5041556;28;20071;-72
2022/01/28 00:13:37;;;;;;;3.35;2.22;;;;;;;;;;5033320;28;20025;-72
2022/01/28 00:40:26;;;;;;;7.22;2.20;;;;;;;;;;5032214;28;20060;-72
2022/01/28 00:42:52;;;;;;;9.45;2.55;;;;;;;;;;5041726;28;20033;-72
2022/01/28 00:45:18;;;;;;;5.80;2.35;;;;;;;;;;5038058;28;20465;-72
2022/01/28 00:47:46;;;;;;;8.57;2.78;;;;;;;;;;5048101;28;20029;-72
2022/01/28 00:50:13;;;;;;;6.45;2.47;;;;;;;;;;5036472;28;20512;-72
2022/01/28 00:52:39;;;;;;;8.07;2.50;;;;;;;;;;5042986;28;20075;-72
2022/01/28 00:55:06;;;;;;;7.25;2.17;;;;;;;;;;5032287;28;20111;-73
2022/01/28 00:57:32;;;;;;;6.30;1.90;;;;;;;;;;5047251;28;20036;-72
2022/01/28 00:59:58;;;;;;;5.15;2.47;;;;;;;;;;5034683;28;20133;-73
2022/01/28 01:02:24;;;;;;;6.75;2.15;;;;;;;;;;5045647;28;20409;-72
2022/01/28 01:04:50;;;;;;;9.38;2.38;;;;;;;;;;5050303;28;20444;-72
2022/01/28 01:07:16;;;;;;;6.50;2.40;;;;;;;;;;5051160;28;20071;-72
2022/01/28 01:09:45;;;;;;;4.28;2.30;;;;;;;;;;5016534;28;20030;-73
2022/01/28 01:12:11;;;;;;;5.18;2.20;;;;;;;;;;5035474;28;20052;-72
2022/01/28 01:14:38;;;;;;;5.95;2.03;;;;;;;;;;5051483;28;20025;-72
2022/01/28 01:19:41;;;;;;;7.13;3.95;;;;;;;;;;5047212;28;20131;-72
2022/01/28 01:22:09;;;;;;;8.07;2.50;;;;;;;;;;5034965;28;20039;-72
2022/01/28 01:24:46;;;;;;;7.45;2.70;;;;;;;;;;5044076;28;20052;-72
2022/01/28 01:27:12;;;;;;;76.93;6.68;;;;;;;;;;5031536;28;20363;-72
2022/01/28 01:29:42;;;;;;;5.82;2.40;;;;;;;;;;5047526;28;20051;-72
2022/01/28 01:32:13;;;;;;;4.13;1.83;;;;;;;;;;5034902;28;20398;-72
2022/01/28 01:34:39;;;;;;;30.40;3.95;;;;;;;;;;5046468;28;20100;-72
2022/01/28 01:37:05;;;;;;;6.97;2.20;;;;;;;;;;5051116;28;20082;-72
2022/01/28 01:39:35;;;;;;;7.55;2.05;;;;;;;;;;5040026;28;20050;-73
2022/01/28 01:42:12;;;;;;;68.97;4.78;;;;;;;;;;5043240;28;20297;-72
2022/01/28 01:45:15;;;;;;;18.27;2.95;;;;;;;;;;5047508;28;20481;-72
2022/01/28 01:52:56;;;;;;;46.22;5.93;;;;;;;;;;5044900;28;20105;-72
2022/01/28 01:55:22;;;;;;;20.33;4.13;;;;;;;;;;5048302;28;20546;-72
2022/01/28 01:57:48;;;;;;;9.68;3.83;;;;;;;;;;5037791;28;20021;-72
2022/01/28 02:00:15;;;;;;;25.45;4.53;;;;;;;;;;5050528;28;20064;-72
2022/01/28 02:02:48;;;;;;;9.52;3.35;;;;;;;;;;5034901;28;20038;-72
2022/01/28 02:05:14;;;;;;;10.20;3.40;;;;;;;;;;5045191;28;20032;-73
2022/01/28 02:07:44;;;;;;;44.78;5.60;;;;;;;;;;5035268;28;20030;-72
2022/01/28 02:10:10;;;;;;;34.08;6.88;;;;;;;;;;5053764;28;20145;-72
2022/01/28 02:12:54;;;;;;;96.40;9.55;;;;;;;;;;5047608;28;20021;-72
2022/01/28 02:15:20;;;;;;;92.55;7.97;;;;;;;;;;5047517;28;20033;-72
2022/01/28 02:17:46;;;;;;;87.32;8.38;;;;;;;;;;5037511;28;20481;-72
2022/01/28 02:20:18;;;;;;;180.98;12.98;;;;;;;;;;5053617;28;20028;-73
2022/01/28 02:22:45;;;;;;;130.32;10.80;;;;;;;;;;5053733;28;20493;-72
2022/01/28 02:25:24;;;;;;;68.35;8.88;;;;;;;;;;5042468;28;20474;-73
2022/01/28 02:27:51;;;;;;;247.45;17.90;;;;;;;;;;5050391;28;20043;-72
2022/01/28 02:30:17;;;;;;;269.75;20.50;;;;;;;;;;5038273;28;20021;-72
2022/01/28 02:32:45;;;;;;;65.00;8.15;;;;;;;;;;5046068;28;20112;-72
2022/01/28 02:35:11;;;;;;;144.07;12.50;;;;;;;;;;5045044;28;20134;-72
2022/01/28 02:37:37;;;;;;;59.65;7.20;;;;;;;;;;5053782;28;20029;-72
2022/01/28 02:40:04;;;;;;;122.20;11.13;;;;;;;;;;5036563;28;20077;-72
2022/01/28 02:42:47;;;;;;;93.65;8.82;;;;;;;;;;5048248;28;20509;-72
2022/01/28 02:45:24;;;;;;;16.63;4.78;;;;;;;;;;5045011;28;20037;-72
2022/01/28 02:47:55;;;;;;;100.30;9.88;;;;;;;;;;5036819;28;20121;-72
2022/01/28 02:50:22;;;;;;;113.43;9.73;;;;;;;;;;5053203;28;20032;-72
2022/01/28 02:53:01;;;;;;;89.13;8.05;;;;;;;;;;5045403;28;20025;-72
2022/01/28 02:55:30;;;;;;;76.97;8.57;;;;;;;;;;5046302;28;20075;-72
2022/01/28 02:58:14;;;;;;;74.68;7.15;;;;;;;;;;5051802;28;20035;-72
2022/01/28 03:00:41;;;;;;;294.83;15.65;;;;;;;;;;5040426;28;20029;-72
2022/01/28 03:03:07;;;;;;;260.70;15.07;;;;;;;;;;5046849;28;20500;-73
2022/01/28 03:05:34;;;;;;;181.15;10.95;;;;;;;;;;5038902;28;20441;-72
2022/01/28 03:08:03;;;;;;;37.17;5.32;;;;;;;;;;5049557;28;20059;-72
2022/01/28 03:15:42;;;;;;;100.43;7.75;;;;;;;;;;5038301;28;20037;-72
2022/01/28 03:18:19;;;;;;;111.07;10.43;;;;;;;;;;5051033;28;20029;-73
2022/01/28 03:23:18;;;;;;;20.48;4.95;;;;;;;;;;5044865;28;20589;-72
2022/01/28 03:25:46;;;;;;;51.45;5.72;;;;;;;;;;5037727;28;20030;-73
2022/01/28 03:28:13;;;;;;;79.82;9.40;;;;;;;;;;5049065;28;20543;-72
2022/01/28 03:30:40;;;;;;;31.65;5.15;;;;;;;;;;5039173;28;20021;-73
2022/01/28 03:33:06;;;;;;;29.25;7.10;;;;;;;;;;5037423;28;20108;-72
2022/01/28 03:35:33;;;;;;;106.70;9.27;;;;;;;;;;5045793;28;20023;-73
2022/01/28 03:38:01;;;;;;;59.40;8.82;;;;;;;;;;5051426;28;20079;-72
2022/01/28 03:40:28;;;;;;;119.88;10.75;;;;;;;;;;5037095;28;20053;-72
2022/01/28 03:42:54;;;;;;;132.73;12.60;;;;;;;;;;5044364;28;20112;-72
2022/01/28 03:45:20;;;;;;;91.15;9.95;;;;;;;;;;5044052;28;20431;-73
2022/01/28 03:47:46;;;;;;;144.45;13.90;;;;;;;;;;5037371;28;20091;-72
2022/01/28 03:50:12;;;;;;;95.30;10.52;;;;;;;;;;5037927;28;20040;-72
2022/01/28 03:52:38;;;;;;;130.65;12.65;;;;;;;;;;5038567;28;20017;-72
2022/01/28 03:55:05;;;;;;;59.08;7.50;;;;;;;;;;5042720;28;20546;-72
2022/01/28 03:57:31;;;;;;;24.17;6.30;;;;;;;;;;5045252;28;20028;-72
2022/01/28 03:59:57;;;;;;;73.35;9.27;;;;;;;;;;5035187;28;20032;-72
2022/01/28 04:02:27;;;;;;;86.65;8.70;;;;;;;;;;5048573;28;20021;-72
2022/01/28 04:12:53;;;;;;;62.00;9.27;;;;;;;;;;5050857;28;20033;-73
2022/01/28 04:15:36;;;;;;;181.90;16.17;;;;;;;;;;5040301;28;20025;-72
2022/01/28 04:18:02;;;;;;;78.30;8.55;;;;;;;;;;5048559;28;20512;-73
2022/01/28 04:20:30;;;;;;;124.90;12.32;;;;;;;;;;5047913;28;20036;-72
2022/01/28 04:22:57;;;;;;;143.63;14.13;;;;;;;;;;5039929;28;20405;-73
2022/01/28 04:25:23;;;;;;;73.18;9.50;;;;;;;;;;5040178;28;20500;-72
2022/01/28 04:27:49;;;;;;;25.15;8.93;;;;;;;;;;5046920;28;20029;-73
2022/01/28 04:30:15;;;;;;;137.30;13.00;;;;;;;;;;5035029;28;20033;-72
2022/01/28 04:32:42;;;;;;;23.35;7.43;;;;;;;;;;5039849;28;20022;-72
2022/01/28 04:35:08;;;;;;;31.67;8.23;;;;;;;;;;5040914;28;20028;-72
2022/01/28 04:43:00;;;;;;;19.73;7.78;;;;;;;;;;5047105;28;20033;-72
2022/01/28 05:15:07;;;;;;;24.88;8.32;;;;;;;;;;5039955;28;20107;-72
2022/01/28 05:28:13;;;;;;;63.75;11.27;;;;;;;;;;5008035;28;20034;-72
2022/01/28 05:30:39;;;;;;;26.83;8.43;;;;;;;;;;5011385;28;20096;-72
2022/01/28 05:33:05;;;;;;;32.60;9.63;;;;;;;;;;5012985;28;20402;-72
2022/01/28 05:35:31;;;;;;;25.80;8.60;;;;;;;;;;5011567;28;20112;-72
2022/01/28 05:37:57;;;;;;;29.63;8.93;;;;;;;;;;5014310;28;20046;-72
2022/01/28 05:40:23;;;;;;;31.85;9.13;;;;;;;;;;5010777;28;20532;-72
2022/01/28 05:42:49;;;;;;;22.35;8.48;;;;;;;;;;5012871;28;20444;-72
2022/01/28 05:45:16;;;;;;;93.88;10.88;;;;;;;;;;5015920;28;20030;-72
2022/01/28 05:47:42;;;;;;;129.82;15.48;;;;;;;;;;5013347;28;20026;-72
2022/01/28 05:50:08;;;;;;;58.45;10.85;;;;;;;;;;5012891;28;20084;-72
2022/01/28 05:52:35;;;;;;;122.72;13.90;;;;;;;;;;5020194;28;20071;-72
2022/01/28 05:55:01;;;;;;;197.20;18.67;;;;;;;;;;5017346;28;20104;-72
2022/01/28 05:57:27;;;;;;;76.38;12.93;;;;;;;;;;5015798;28;20026;-72
2022/01/28 05:59:53;;;;;;;24.73;9.05;;;;;;;;;;5024172;28;20035;-72
2022/01/28 06:02:19;;;;;;;35.60;10.43;;;;;;;;;;5031262;28;20060;-73
2022/01/28 06:04:45;;;;;;;67.03;10.38;;;;;;;;;;5048964;28;20026;-72
2022/01/28 06:07:12;;;;;;;76.78;12.15;;;;;;;;;;5047408;28;20075;-73
2022/01/28 06:09:38;;;;;;;66.72;12.35;;;;;;;;;;5048618;28;20423;-73
2022/01/28 06:12:04;;;;;;;88.93;15.57;;;;;;;;;;5046694;28;20049;-73
2022/01/28 06:14:31;;;;;;;27.27;10.88;;;;;;;;;;5045108;28;20535;-72
2022/01/28 06:16:57;;;;;;;80.25;13.30;;;;;;;;;;5046611;28;20033;-73
2022/01/28 06:19:23;;;;;;;35.75;11.55;;;;;;;;;;5048524;28;20029;-74
2022/01/28 06:21:49;;;;;;;94.05;13.48;;;;;;;;;;5048697;28;20430;-73
2022/01/28 06:24:15;;;;;;;39.75;11.10;;;;;;;;;;5044803;28;20555;-73
2022/01/28 06:26:41;;;;;;;38.50;11.40;;;;;;;;;;5047836;28;20436;-73
2022/01/28 06:29:08;;;;;;;58.22;11.15;;;;;;;;;;5047193;28;20021;-73
2022/01/28 06:31:34;;;;;;;123.45;14.82;;;;;;;;;;5049194;28;20021;-73
2022/01/28 06:34:00;;;;;;;29.83;10.68;;;;;;;;;;5046483;28;20057;-73
2022/01/28 06:36:26;;;;;;;29.35;10.80;;;;;;;;;;5049545;28;20518;-73
2022/01/28 06:38:52;;;;;;;31.70;11.55;;;;;;;;;;5048511;28;20071;-73
2022/01/28 06:41:18;;;;;;;79.60;12.68;;;;;;;;;;5047270;28;20021;-72
2022/01/28 06:43:44;;;;;;;142.57;17.52;;;;;;;;;;5048927;28;20482;-73
2022/01/28 06:46:10;;;;;;;44.47;11.13;;;;;;;;;;5048648;28;20040;-73
2022/01/28 06:48:36;;;;;;;45.13;12.82;;;;;;;;;;5049420;28;20024;-73
2022/01/28 06:51:03;;;;;;;34.38;13.00;;;;;;;;;;5045242;28;20400;-72
2022/01/28 06:53:29;;;;;;;53.45;12.52;;;;;;;;;;5041761;28;20420;-72
2022/01/28 06:55:55;;;;;;;182.18;24.23;;;;;;;;;;5051686;28;20096;-72
2022/01/28 06:58:21;;;;;;;70.18;15.05;;;;;;;;;;5052620;28;20132;-72
2022/01/28 07:00:47;;;;;;;144.45;18.92;;;;;;;;;;5047861;28;20108;-72
2022/01/28 07:03:17;;;;;;;69.75;13.70;;;;;;;;;;5048129;28;20371;-71
2022/01/28 07:05:43;;;;;;;111.90;17.80;;;;;;;;;;5039098;28;20091;-72
2022/01/28 07:08:09;;;;;;;48.88;12.68;;;;;;;;;;5058233;28;20074;-72
2022/01/28 07:10:35;;;;;;;30.55;11.38;;;;;;;;;;5052876;28;20043;-72
2022/01/28 07:13:02;;;;;;;45.25;12.10;;;;;;;;;;5050375;28;20116;-72
2022/01/28 07:15:28;;;;;;;37.63;12.20;;;;;;;;;;5033128;28;20075;-72
2022/01/28 07:18:00;;;;;;;51.50;13.52;;;;;;;;;;5042491;28;20033;-72
2022/01/28 07:20:29;;;;;;;41.25;12.30;;;;;;;;;;5046692;28;20024;-71
2022/01/28 07:22:55;;;;;;;32.22;12.35;;;;;;;;;;5052940;28;20059;-71
2022/01/28 07:25:21;;;;;;;37.42;12.35;;;;;;;;;;5047462;28;20025;-71
2022/01/28 07:27:47;;;;;;;58.33;13.55;;;;;;;;;;5037507;28;20108;-73
2022/01/28 07:30:14;;;;;;;44.65;14.10;;;;;;;;;;5042466;28;20037;-71
2022/01/28 07:32:40;;;;;;;60.22;15.15;;;;;;;;;;5041387;28;20017;-72
2022/01/28 07:35:07;;;;;;;66.50;17.02;;;;;;;;;;5044064;28;20056;-72
2022/01/28 07:37:33;;;;;;;50.90;14.38;;;;;;;;;;5028292;28;20033;-71
2022/01/28 07:40:02;;;;;;;80.18;16.73;;;;;;;;;;5046251;28;20059;-71
2022/01/28 07:42:32;;;;;;;29.50;11.60;;;;;;;;;;5054199;28;20028;-71
2022/01/28 07:44:58;;;;;;;32.42;12.68;;;;;;;;;;5040177;28;20033;-71
2022/01/28 07:47:24;;;;;;;25.42;11.40;;;;;;;;;;5044809;28;20025;-71
2022/01/28 07:49:51;;;;;;;30.67;12.75;;;;;;;;;;5036103;28;20026;-71
2022/01/28 07:52:17;;;;;;;30.77;12.88;;;;;;;;;;5047997;28;20472;-72
2022/01/28 07:54:47;;;;;;;40.05;15.50;;;;;;;;;;5047560;28;20029;-71
2022/01/28 07:57:14;;;;;;;34.42;14.55;;;;;;;;;;5020471;28;20542;-71
2022/01/28 07:59:40;;;;;;;34.55;15.50;;;;;;;;;;5049284;28;20138;-72
2022/01/28 08:02:06;;;;;;;32.85;15.50;;;;;;;;;;5047213;28;20036;-72
2022/01/28 08:04:32;;;;;;;33.53;15.23;;;;;;;;;;5039257;28;20480;-72
2022/01/28 08:06:58;;;;;;;33.90;14.65;;;;;;;;;;5045297;28;20025;-72
2022/01/28 08:09:24;;;;;;;38.03;14.10;;;;;;;;;;5042692;28;20022;-72
2022/01/28 08:11:50;;;;;;;31.60;15.23;;;;;;;;;;5039681;28;20020;-72
2022/01/28 08:14:17;;;;;;;31.48;14.10;;;;;;;;;;5041552;28;20025;-72
2022/01/28 08:16:43;;;;;;;30.92;15.15;;;;;;;;;;5041049;28;20518;-72
2022/01/28 08:19:09;;;;;;;39.10;16.40;;;;;;;;;;5040793;28;20029;-72
2022/01/28 08:21:35;;;;;;;30.98;15.77;;;;;;;;;;5051107;28;20030;-72
2022/01/28 08:24:01;;;;;;;39.22;15.40;;;;;;;;;;5043079;28;20029;-72
2022/01/28 08:26:27;;;;;;;40.60;14.15;;;;;;;;;;5045441;28;20024;-72
2022/01/28 08:28:53;;;;;;;34.58;12.73;;;;;;;;;;5034702;28;20025;-72
2022/01/28 08:31:20;;;;;;;35.50;13.50;;;;;;;;;;5044965;28;20031;-72
2022/01/28 08:33:46;;;;;;;35.95;13.02;;;;;;;;;;5034981;28;20486;-72
2022/01/28 08:36:12;;;;;;;30.42;13.60;;;;;;;;;;5042797;28;20091;-72
2022/01/28 08:38:44;;;;;;;34.67;17.27;;;;;;;;;;5048185;28;20037;-72
2022/01/28 08:41:12;;;;;;;34.08;18.15;;;;;;;;;;5047874;28;20095;-72
2022/01/28 08:43:42;;;;;;;42.17;20.10;;;;;;;;;;5025056;28;20499;-72
2022/01/28 08:46:09;;;;;;;31.13;15.90;;;;;;;;;;5043722;28;20094;-72
2022/01/28 08:48:35;;;;;;;26.75;11.77;;;;;;;;;;5043254;28;20036;-72
2022/01/28 08:51:01;;;;;;;30.20;12.32;;;;;;;;;;5048676;28;20067;-72
2022/01/28 08:53:27;;;;;;;22.83;11.93;;;;;;;;;;5042769;28;20524;-72
2022/01/28 08:55:53;;;;;;;16.02;10.40;;;;;;;;;;5047087;28;20108;-72
2022/01/28 08:58:19;;;;;;;20.80;10.48;;;;;;;;;;5039920;28;20033;-72
2022/01/28 09:00:48;;;;;;;17.35;10.32;;;;;;;;;;5043313;28;20033;-72
2022/01/28 09:03:18;;;;;;;18.45;9.10;;;;;;;;;;5037150;28;20026;-71
2022/01/28 09:05:44;;;;;;;19.35;9.30;;;;;;;;;;5045530;28;20123;-72
2022/01/28 09:08:11;;;;;;;18.40;8.25;;;;;;;;;;5045074;28;20035;-72
2022/01/28 09:10:41;;;;;;;17.25;8.23;;;;;;;;;;5046718;28;20018;-72
2022/01/28 09:15:34;;;;;;;8.70;5.40;;;;;;;;;;5027215;28;20028;-71
2022/01/28 09:18:00;;;;;;;12.27;5.82;;;;;;;;;;5037548;28;20060;-72
2022/01/28 09:20:26;;;;;;;12.63;5.90;;;;;;;;;;5042371;28;20405;-72
2022/01/28 09:22:53;;;;;;;17.50;8.10;;;;;;;;;;5040728;28;20394;-71
2022/01/28 09:25:19;;;;;;;13.07;5.63;;;;;;;;;;5042438;28;20033;-72
2022/01/28 09:27:45;;;;;;;13.63;7.03;;;;;;;;;;5038645;28;20079;-72
2022/01/28 09:30:11;;;;;;;17.48;7.03;;;;;;;;;;5045576;28;20063;-71
2022/01/28 09:32:38;;;;;;;18.23;7.32;;;;;;;;;;5042766;28;20114;-72
2022/01/28 09:35:04;;;;;;;14.65;7.65;;;;;;;;;;5042298;28;20051;-72
2022/01/28 09:37:30;;;;;;;9.48;5.03;;;;;;;;;;5047746;28;20029;-71
2022/01/28 09:39:56;;;;;;;12.38;4.75;;;;;;;;;;5047539;28;20046;-72
2022/01/28 09:42:30;;;;;;;11.75;4.97;;;;;;;;;;5041987;28;20040;-72
2022/01/28 09:44:56;;;;;;;8.35;3.75;;;;;;;;;;5048188;28;20037;-72
2022/01/28 09:47:22;;;;;;;8.82;4.68;;;;;;;;;;5044322;28;20041;-72
2022/01/28 09:49:48;;;;;;;10.75;5.20;;;;;;;;;;5044100;28;20437;-72
2022/01/28 09:52:15;;;;;;;6.60;3.33;;;;;;;;;;5047965;28;20029;-72
2022/01/28 09:54:46;;;;;;;9.10;4.75;;;;;;;;;;5043536;28;20473;-72
2022/01/28 09:57:17;;;;;;;7.13;4.00;;;;;;;;;;5043075;28;20033;-72
2022/01/28 09:59:43;;;;;;;18.45;7.80;;;;;;;;;;5050069;28;20032;-72
2022/01/28 10:02:09;;;;;;;11.85;5.00;;;;;;;;;;5049289;28;20033;-72
2022/01/28 10:04:35;;;;;;;12.90;5.70;;;;;;;;;;5047200;28;20370;-72
2022/01/28 10:07:17;;;;;;;11.38;6.15;;;;;;;;;;5051867;28;20091;-72
2022/01/28 10:09:56;;;;;;;12.10;5.32;;;;;;;;;;5047868;28;20120;-72
2022/01/28 10:12:31;;;;;;;8.70;2.80;;;;;;;;;;5048638;28;20029;-72
2022/01/28 10:15:03;;;;;;;5.78;3.30;;;;;;;;;;5042083;28;20048;-72
2022/01/28 10:17:48;;;;;;;7.60;4.10;;;;;;;;;;5045722;28;20040;-72
2022/01/28 10:20:14;;;;;;;19.42;8.77;;;;;;;;;;5040827;28;20026;-71
2022/01/28 10:22:49;;;;;;;4.57;2.60;;;;;;;;;;5047624;28;20083;-72
2022/01/28 10:25:22;;;;;;;7.78;3.05;;;;;;;;;;5045907;28;20032;-72
2022/01/28 10:27:58;;;;;;;7.45;3.97;;;;;;;;;;5042767;28;20053;-72
2022/01/28 10:30:25;;;;;;;5.50;2.65;;;;;;;;;;5049921;28;20662;-72
2022/01/28 10:33:10;;;;;;;6.78;3.65;;;;;;;;;;5046286;28;20090;-72
2022/01/28 10:35:36;;;;;;;6.43;2.42;;;;;;;;;;5048424;28;20668;-72
2022/01/28 10:38:04;;;;;;;3.88;1.80;;;;;;;;;;5044415;28;20038;-72
2022/01/28 10:40:30;;;;;;;3.33;2.10;;;;;;;;;;5047643;28;20076;-72
2022/01/28 10:42:56;;;;;;;4.18;2.00;;;;;;;;;;5047008;28;20127;-72
2022/01/28 10:45:28;;;;;;;3.63;1.40;;;;;;;;;;5041400;28;20037;-72
2022/01/28 10:47:58;;;;;;;2.35;1.00;;;;;;;;;;5047737;28;20056;-72
2022/01/28 10:50:35;;;;;;;2.65;0.77;;;;;;;;;;5051224;28;20032;-71
2022/01/28 10:53:08;;;;;;;1.17;0.70;;;;;;;;;;5052754;28;20025;-72
2022/01/28 10:55:37;;;;;;;2.80;1.27;;;;;;;;;;5037900;28;20386;-71
2022/01/28 10:58:08;;;;;;;3.53;0.70;;;;;;;;;;5026563;28;20065;-72
2022/01/28 11:00:35;;;;;;;4.57;0.80;;;;;;;;;;5043952;28;20067;-71
2022/01/28 11:03:03;;;;;;;1.60;1.20;;;;;;;;;;5047391;28;20063;-72
2022/01/28 11:05:30;;;;;;;5.22;2.30;;;;;;;;;;5045183;28;20037;-71
2022/01/28 11:07:57;;;;;;;3.85;1.52;;;;;;;;;;5049335;28;20098;-72
2022/01/28 11:10:23;;;;;;;5.93;2.50;;;;;;;;;;5048546;28;20429;-72
2022/01/28 11:12:51;;;;;;;7.45;2.30;;;;;;;;;;5046562;28;20059;-72
2022/01/28 11:15:17;;;;;;;4.18;2.55;;;;;;;;;;5046326;28;20037;-72
2022/01/28 11:17:43;;;;;;;2.33;1.10;;;;;;;;;;5027660;28;20021;-72
2022/01/28 11:20:10;;;;;;;1.95;1.20;;;;;;;;;;5041944;28;20040;-72
2022/01/28 11:22:47;;;;;;;1.92;1.17;;;;;;;;;;5049177;28;20036;-71
2022/01/28 11:25:27;;;;;;;1.92;1.20;;;;;;;;;;5045871;28;20110;-71
2022/01/28 11:27:54;;;;;;;2.15;1.30;;;;;;;;;;5041484;28;20092;-71
2022/01/28 11:30:30;;;;;;;2.85;0.90;;;;;;;;;;5041718;28;20073;-71
2022/01/28 11:33:02;;;;;;;1.55;1.02;;;;;;;;;;5042970;28;20032;-71
2022/01/28 11:35:30;;;;;;;2.55;1.40;;;;;;;;;;5023781;28;20554;-72
2022/01/28 11:38:02;;;;;;;2.95;1.48;;;;;;;;;;5040595;28;20025;-71
2022/01/28 11:40:41;;;;;;;3.10;1.15;;;;;;;;;;5042331;28;20051;-71
2022/01/28 11:43:17;;;;;;;2.20;1.02;;;;;;;;;;5045605;28;20107;-72
2022/01/28 11:45:44;;;;;;;3.63;1.25;;;;;;;;;;5047339;28;20111;-72
2022/01/28 11:48:10;;;;;;;4.72;1.60;;;;;;;;;;5041344;28;20026;-72
2022/01/28 11:50:36;;;;;;;1.92;0.75;;;;;;;;;;5028465;28;20040;-71
2022/01/28 11:53:02;;;;;;;1.40;0.80;;;;;;;;;;5047015;28;20029;-72
2022/01/28 11:55:28;;;;;;;2.78;1.33;;;;;;;;;;5044840;28;20090;-73
2022/01/28 11:58:03;;;;;;;2.17;1.35;;;;;;;;;;5041465;28;20041;-72
2022/01/28 12:00:40;;;;;;;1.48;1.13;;;;;;;;;;5041899;28;20040;-72
2022/01/28 12:03:22;;;;;;;1.40;0.93;;;;;;;;;;5042973;28;20492;-72
2022/01/28 12:05:50;;;;;;;2.88;1.70;;;;;;;;;;5046996;28;20546;-70
2022/01/28 12:08:17;;;;;;;2.58;1.50;;;;;;;;;;5031266;28;20021;-70
2022/01/28 12:10:45;;;;;;;2.60;1.67;;;;;;;;;;5042178;28;20055;-70
2022/01/28 12:13:16;;;;;;;3.65;2.00;;;;;;;;;;5042199;28;20454;-71
2022/01/28 12:16:02;;;;;;;2.03;1.20;;;;;;;;;;5042001;28;20064;-71
2022/01/28 12:18:47;;;;;;;2.67;1.55;;;;;;;;;;5041606;28;20115;-71
2022/01/28 12:21:17;;;;;;;2.72;1.90;;;;;;;;;;5041967;28;20029;-71
2022/01/28 12:23:44;;;;;;;4.00;2.13;;;;;;;;;;5053633;28;20026;-71
2022/01/28 12:26:13;;;;;;;3.75;2.00;;;;;;;;;;5044679;28;20029;-72
2022/01/28 12:29:02;;;;;;;4.00;2.28;;;;;;;;;;5046243;28;20024;-72
2022/01/28 12:31:32;;;;;;;2.88;1.50;;;;;;;;;;5047240;28;20075;-72
2022/01/28 12:34:03;;;;;;;2.10;1.50;;;;;;;;;;5046866;28;20495;-72
2022/01/28 12:36:38;;;;;;;1.77;1.20;;;;;;;;;;5050613;28;20025;-72
2022/01/28 12:39:19;;;;;;;2.20;1.15;;;;;;;;;;5046454;28;20050;-71
2022/01/28 12:41:54;;;;;;;11.77;4.72;;;;;;;;;;5027783;28;20354;-72
2022/01/28 12:44:20;;;;;;;7.28;3.95;;;;;;;;;;5042841;28;20481;-72
2022/01/28 12:46:50;;;;;;;7.03;3.15;;;;;;;;;;5042607;28;20048;-71
2022/01/28 12:49:16;;;;;;;8.75;4.32;;;;;;;;;;5050411;28;20083;-71
2022/01/28 12:51:42;;;;;;;4.85;2.47;;;;;;;;;;5045633;28;20048;-72
2022/01/28 12:54:09;;;;;;;5.13;3.00;;;;;;;;;;5044131;28;20029;-71
2022/01/28 12:56:43;;;;;;;7.32;3.47;;;;;;;;;;5040705;28;20519;-71
2022/01/28 12:59:10;;;;;;;12.45;5.93;;;;;;;;;;5041756;28;20025;-71
2022/01/28 13:01:37;;;;;;;7.78;4.40;;;;;;;;;;5040730;28;20433;-71
2022/01/28 13:04:08;;;;;;;7.03;3.00;;;;;;;;;;5038317;28;20037;-71
2022/01/28 13:09:02;;;;;;;4.93;2.60;;;;;;;;;;5050909;28;20022;-71
2022/01/28 13:11:28;;;;;;;6.43;3.55;;;;;;;;;;5042963;28;20109;-72
2022/01/28 13:13:56;;;;;;;6.95;3.33;;;;;;;;;;5039170;28;20112;-71
2022/01/28 13:16:31;;;;;;;8.13;4.18;;;;;;;;;;5043211;28;20029;-71
2022/01/28 13:18:58;;;;;;;7.53;3.83;;;;;;;;;;5038290;28;20057;-71
2022/01/28 13:21:24;;;;;;;3.42;2.67;;;;;;;;;;5045332;28;20053;-72
2022/01/28 13:24:04;;;;;;;3.65;2.30;;;;;;;;;;5039548;28;20021;-72
2022/01/28 13:26:30;;;;;;;3.80;2.60;;;;;;;;;;5047173;28;20034;-71
2022/01/28 13:29:09;;;;;;;5.03;2.70;;;;;;;;;;5028623;28;20025;-72
2022/01/28 13:31:36;;;;;;;4.32;2.03;;;;;;;;;;5048046;28;20037;-71
2022/01/28 13:34:05;;;;;;;5.05;1.90;;;;;;;;;;5045812;28;20499;-71
2022/01/28 13:36:48;;;;;;;1.63;1.13;;;;;;;;;;5052252;28;20029;-72
2022/01/28 13:39:15;;;;;;;1.38;1.20;;;;;;;;;;5049037;28;20036;-72
2022/01/28 13:41:41;;;;;;;2.83;0.82;;;;;;;;;;5048888;28;20120;-71
2022/01/28 13:44:30;;;;;;;2.25;1.33;;;;;;;;;;5047795;28;20079;-71
2022/01/28 13:46:57;;;;;;;1.00;0.80;;;;;;;;;;5042829;28;20053;-71
2022/01/28 13:49:33;;;;;;;1.55;0.80;;;;;;;;;;5040817;28;20032;-71
2022/01/28 13:52:06;;;;;;;1.23;0.95;;;;;;;;;;5044832;28;20025;-71
2022/01/28 13:54:33;;;;;;;0.85;0.68;;;;;;;;;;5049407;28;20071;-71
2022/01/28 13:57:04;;;;;;;1.45;1.00;;;;;;;;;;5029618;28;20118;-71
2022/01/28 13:59:32;;;;;;;2.72;0.95;;;;;;;;;;5048743;28;20064;-71
2022/01/28 14:02:01;;;;;;;1.17;0.70;;;;;;;;;;5048161;28;20032;-71
2022/01/28 14:04:37;;;;;;;1.27;0.45;;;;;;;;;;5043296;28;20080;-71
2022/01/28 14:07:14;;;;;;;0.73;0.40;;;;;;;;;;5042592;28;20025;-71
2022/01/28 14:09:55;;;;;;;0.32;0.30;;;;;;;;;;5047196;28;20032;-71
2022/01/28 14:12:25;;;;;;;1.52;0.40;;;;;;;;;;5056264;28;20056;-71
2022/01/28 14:14:57;;;;;;;0.88;0.70;;;;;;;;;;5045479;28;20671;-71
2022/01/28 14:17:23;;;;;;;1.02;0.88;;;;;;;;;;5044523;28;20044;-71
2022/01/28 14:19:51;;;;;;;0.90;0.60;;;;;;;;;;5042493;28;20033;-71
2022/01/28 14:22:17;;;;;;;0.88;0.70;;;;;;;;;;5024493;28;20029;-71
2022/01/28 14:24:44;;;;;;;0.73;0.40;;;;;;;;;;5049919;28;20119;-71
2022/01/28 14:27:23;;;;;;;1.60;0.63;;;;;;;;;;5047376;28;20044;-72
2022/01/28 14:29:52;;;;;;;1.05;0.50;;;;;;;;;;5047871;28;20402;-71
2022/01/28 14:32:22;;;;;;;1.70;1.00;;;;;;;;;;5045083;28;20552;-71
2022/01/28 14:34:50;;;;;;;1.58;1.20;;;;;;;;;;5047610;28;20029;-71
2022/01/28 14:37:16;;;;;;;2.25;0.93;;;;;;;;;;5045837;28;20044;-71
2022/01/28 14:39:42;;;;;;;1.55;1.00;;;;;;;;;;5047518;28;20044;-71
2022/01/28 14:42:10;;;;;;;3.65;1.63;;;;;;;;;;5047638;28;20029;-71
2022/01/28 14:44:37;;;;;;;1.00;0.50;;;;;;;;;;5045083;28;20043;-71
2022/01/28 14:47:04;;;;;;;1.60;1.10;;;;;;;;;;5044149;28;20493;-71
2022/01/28 14:49:30;;;;;;;2.50;1.65;;;;;;;;;;5047595;28;20029;-71
2022/01/28 14:52:00;;;;;;;1.13;0.90;;;;;;;;;;5050296;28;20016;-71
2022/01/28 14:54:27;;;;;;;2.55;1.55;;;;;;;;;;5028281;28;20021;-71
2022/01/28 14:56:56;;;;;;;4.40;2.33;;;;;;;;;;5046592;28;20029;-71
2022/01/28 14:59:23;;;;;;;5.47;2.35;;;;;;;;;;5047014;28;20027;-71
2022/01/28 15:01:49;;;;;;;1.85;1.38;;;;;;;;;;5046834;28;20021;-71
2022/01/28 15:04:16;;;;;;;3.83;1.15;;;;;;;;;;5049791;28;20033;-71
2022/01/28 15:06:42;;;;;;;2.00;1.08;;;;;;;;;;5048021;28;20511;-71
2022/01/28 15:09:10;;;;;;;1.90;0.98;;;;;;;;;;5047745;28;20013;-72
2022/01/28 15:12:10;;;;;;;5.47;2.05;;;;;;;;;;5045142;28;20116;-71
2022/01/28 15:14:29;;;;;;;5.65;1.92;;;;;;;;;;5042813;28;20048;-71
2022/01/28 15:16:55;;;;;;;3.33;1.45;;;;;;;;;;5045472;28;20029;-71
2022/01/28 15:19:22;;;;;;;4.72;1.80;;;;;;;;;;5045767;28;20938;-71
2022/01/28 15:21:50;;;;;;;3.08;1.52;;;;;;;;;;5038372;28;20024;-71
2022/01/28 15:24:26;;;;;;;4.05;1.95;;;;;;;;;;5044254;28;20036;-71
2022/01/28 15:26:53;;;;;;;3.15;1.10;;;;;;;;;;5035615;28;20037;-71
2022/01/28 15:37:15;;;;;;;1.27;0.80;;;;;;;;;;5044759;28;20029;-71
2022/01/28 15:39:41;;;;;;;2.20;0.95;;;;;;;;;;5047088;28;20078;-71
2022/01/28 15:42:08;;;;;;;1.23;0.85;;;;;;;;;;5042160;28;20041;-71
2022/01/28 15:44:34;;;;;;;1.30;0.95;;;;;;;;;;5039019;28;20040;-71
2022/01/28 15:47:03;;;;;;;1.58;0.73;;;;;;;;;;5038987;28;20028;-71
2022/01/28 15:49:31;;;;;;;0.70;0.70;;;;;;;;;;5045844;28;20486;-71
2022/01/28 15:51:57;;;;;;;1.20;0.77;;;;;;;;;;5044403;28;20134;-70
2022/01/28 15:54:24;;;;;;;0.93;0.60;;;;;;;;;;5044191;28;20437;-71
2022/01/28 15:56:51;;;;;;;2.05;0.90;;;;;;;;;;5048644;28;20024;-71
2022/01/28 15:59:17;;;;;;;0.60;0.60;;;;;;;;;;5042130;28;20052;-71
2022/01/28 16:01:43;;;;;;;2.47;0.70;;;;;;;;;;5043514;28;20036;-71
2022/01/28 16:04:10;;;;;;;0.98;0.80;;;;;;;;;;5040251;28;20059;-71
2022/01/28 16:06:37;;;;;;;0.80;0.80;;;;;;;;;;5043221;28;20038;-71
2022/01/28 16:09:06;;;;;;;1.33;0.65;;;;;;;;;;5045871;28;20033;-71
2022/01/28 16:11:57;;;;;;;1.92;1.10;;;;;;;;;;5046166;28;20061;-70
2022/01/28 16:19:38;;;;;;;3.83;2.00;;;;;;;;;;5050226;28;20083;-70
2022/01/28 16:22:05;;;;;;;2.97;1.83;;;;;;;;;;5048983;28;20075;-71
2022/01/28 16:24:31;;;;;;;2.78;1.27;;;;;;;;;;5045018;28;20070;-71
2022/01/28 16:26:58;;;;;;;1.70;1.20;;;;;;;;;;5050239;28;20028;-71
2022/01/28 16:29:25;;;;;;;1.27;1.10;;;;;;;;;;5043685;28;20036;-71
2022/01/28 16:31:51;;;;;;;1.40;1.00;;;;;;;;;;5042094;28;20020;-71